Relevés horaires St-Hubert (Belgique)


Relevés horaires à St-Hubert - Mardi 07 Mai 2019
Heure UTC1 Température [°C] Vent [km/h] Hum. [%] Pres.4 [hPa] Visi. [Km] Nébu. [octa] Préc.5 [mm] Cond.
2m. Res. Ros. Dir.2 Vit. Moy. Raf.3
23:00 7.0 5.6 -0.3 SE 7.4 7.4 11.1 60 1011.6(-2.0/3h) 45 0/8 -- --
22:00 6.6 5.2 -0.4 ESE 7.4 7.4 11.1 61 1012.5(-1.6/3h) 45 0/8 -- --
21:00 7.1 6.3 -0.4 SE 5.6 5.6 9.3 59 1013.3(-1.2/3h) 45 0/8 -- --
20:00 7.0 7.0 0.4 SE 3.7 3.7 5.6 63 1013.7(-1.0/3h) 45 8/8 -- --
19:00 6.7 6.7 0.8 SSE 1.9 3.7 5.6 66 1014.1(-1.2/3h) 40 0/8 -- --
18:00 8.8 8.8 0.5 S 1.9 5.6 18.5 56 1014.2(-1.3/3h) 45 8/8 0/12h
--
17:00 9.1 9.1 -1.3 S 3.7 5.6 7.4 48 1014.3(-1.8/3h) 40 8/8 -- --
16:00 9.7 9.7 -0.8 SSE 3.7 5.6 7.4 48 1014.7(-1.8/3h) 40 6/8 -- --
15:00 9.4 9.4 0.2 SSE 1.9 5.6 18.5 53 1015.4(-1.9/3h) 35 8/8 -- --
14:00 8.7 8.7 -0.4 NNO 1.9 5.6 7.4 53 1016.3(-1.9/3h) 29 8/8 -- --
13:00 8.3 7.6 0.4 ONO 5.6 5.6 18.5 57 1017(-1.4/3h) 30 8/8 -- --
12:00 8.0 8.0 0.1 SSO 3.7 7.4 11.1 57 1017.7(-1.3/3h) 30 8/8 0/6h
--
11:00 6.1 6.1 0.6 NNO 1.9 7.4 11.1 68 1018.9(-0.7/3h) 40 0/8 -- --
10:00 6.3 6.3 0.2 NNO 0.0 3.7 7.4 65 1018.9(-0.7/3h) 30 0/8 -- --
09:00 6.1 6.1 0.3 O 1.9 3.7 5.6 66 1019.6(0.1/3h) 30 0/8 -- --
08:00 5.1 5.1 0.6 SO 1.9 3.7 3.7 73 1019.9(0.1/3h) 27 0/8 -- --
07:00 4.3 4.3 0.5 OSO 1.9 1.9 3.7 76 1020.2(-0.3/3h) 26 0/8 -- --
06:00 3.2 3.2 0.8 S 1.9 1.9 5.6 84 1020.4(-0.6/3h) 22 0/8 0/12h
--
05:00 2.6 2.6 0.9 SSO 1.9 1.9 3.7 89 1020.6(-0.7/3h) 18 0/8 -- --
04:00 2.5 2.5 1.0 SSO 1.9 1.9 5.6 90 1020.9(-0.4/3h) 15 0/8 -- --
03:00 2.5 2.5 0.8 OSO 1.9 1.9 3.7 89 1021.2(-0.4/3h) 17 0/8 -- --
02:00 2.3 2.3 0.7 OSO 1.9 1.9 3.7 89 1021.4(-0.7/3h) 20 1/8 -- --
01:00 1.7 1.7 0.1 SO 1.9 1.9 3.7 89 1021.6(-1.1/3h) 22 0/8 -- --
00:00 2.1 2.1 0.2 SO 1.9 7.4 11.1 87 1021.8(-0.9/3h) 23 0/8 0/6h
0/24h
--

1 Coordinated Universal Time. Actuellement il est 07:00 locale et 05:00 UTC.

2 Le vent souffle depuis la direction indiquée vers la direction oposée.

3 Les rafales max. sont disponible 40 min après l'heure du relevé.

4 Pour les stations d'altitude (plus de 600m) le géopotentiel du niveau le plus proche de la pression obligatoire est indiqué.

5 Les stations disposant d'un diffuseur peuvent indiquer "trace". Cela signifie que des précipitations ont touchés le sol mais que la quantité est inférieure à 0.1 mm.

Récapitulatif de la journée
Température [°C] Vent [km/h] Ensoleillement4 [h] Precipitations totale5 [mm] Pression [Hpa]
Min1 Max.2 Moy.3 Max. Min Max.
1.5 10.1 4.5 18.5 0 h 0 min 0 1011.6 1021.8

1 Température minimale relevée entre 18:00 UTC la veille et 18:00 UTC le jour donné.

2 Température maximale relevée entre 06:00 UTC le jour donné et 06:00 UTC le lendemain.

3 Vent moyen de la journée basé sur les relevés horaires.

4 Ensoleillement en heures relevé entre 06:00 UTC la veille et 06:00 UTC le jour donné.

5 Précipitations totales tombées entre 06:00 UTC la jour donné et 06:00 UTC le lendemain.

Graphiques horaires